Time;durP1;ratioP1;P1;durP2;ratioP2;P2;SDS_P1;SDS_P2;PMS_P1;PMS_P2;Temp;Humidity;BMP_temperature;BMP_pressure;BME280_temperature;BME280_humidity;BME280_pressure;Samples;Min_cycle;Max_cycle;Signal;HPM_P1;HPM_P2
2023/03/29 00:01:02;;;;;;;18.08;5.30;;;;;;;4.15;100.00;101510.44;5069369;28;20025;-74
2023/03/29 00:03:29;;;;;;;19.33;5.78;;;;;;;4.13;100.00;101506.84;5073736;28;20031;-71
2023/03/29 00:06:01;;;;;;;17.75;5.50;;;;;;;4.17;100.00;101502.66;5073433;28;20039;-74
2023/03/29 00:08:31;;;;;;;17.83;5.50;;;;;;;4.18;100.00;101504.44;5073438;28;20123;-76
2023/03/29 00:10:58;;;;;;;16.08;5.22;;;;;;;4.22;100.00;101508.06;5073827;28;20048;-79
2023/03/29 00:13:25;;;;;;;16.35;5.10;;;;;;;4.25;100.00;101500.31;5072696;28;20024;-75
2023/03/29 00:15:50;;;;;;;16.20;5.20;;;;;;;4.26;100.00;101504.75;5073288;28;20031;-77
2023/03/29 00:18:16;;;;;;;16.13;5.00;;;;;;;4.26;100.00;101499.50;5073385;28;20028;-78
2023/03/29 00:20:41;;;;;;;16.90;5.22;;;;;;;4.24;100.00;101493.28;5073075;28;20036;-77
2023/03/29 00:23:06;;;;;;;15.57;5.13;;;;;;;4.26;100.00;101486.41;5073513;28;20028;-77
2023/03/29 00:25:32;;;;;;;16.75;5.10;;;;;;;4.26;100.00;101487.31;5073265;28;20471;-79
2023/03/29 00:27:57;;;;;;;16.77;5.30;;;;;;;4.32;100.00;101490.16;5073136;28;20115;-73
2023/03/29 00:30:22;;;;;;;17.10;5.30;;;;;;;4.32;100.00;101482.31;5072933;28;20032;-75
2023/03/29 00:32:48;;;;;;;17.25;5.20;;;;;;;4.37;100.00;101485.13;5073405;28;20037;-74
2023/03/29 00:35:13;;;;;;;17.33;5.20;;;;;;;4.40;100.00;101477.41;5072977;28;20024;-76
2023/03/29 00:37:40;;;;;;;18.27;5.50;;;;;;;4.38;100.00;101486.91;5073051;28;20029;-74
2023/03/29 00:40:08;;;;;;;18.00;5.40;;;;;;;4.35;100.00;101481.53;5073069;28;20059;-76
2023/03/29 00:42:34;;;;;;;16.67;5.38;;;;;;;4.40;100.00;101484.34;5068885;28;20498;-74
2023/03/29 00:45:15;;;;;;;17.40;5.20;;;;;;;4.41;100.00;101479.16;5072900;28;20033;-75
2023/03/29 00:47:44;;;;;;;17.73;5.20;;;;;;;4.44;100.00;101492.41;5069964;28;20016;-75
2023/03/29 00:50:17;;;;;;;16.90;5.05;;;;;;;4.47;100.00;101481.13;5072895;28;20089;-74
2023/03/29 00:52:52;;;;;;;15.38;4.93;;;;;;;4.52;100.00;101471.75;5072689;28;20031;-74
2023/03/29 00:55:21;;;;;;;17.40;5.00;;;;;;;4.57;100.00;101472.78;5072713;28;20077;-79
2023/03/29 00:57:48;;;;;;;15.80;4.93;;;;;;;4.63;100.00;101467.81;5072851;28;20024;-77
2023/03/29 01:00:19;;;;;;;18.23;4.88;;;;;;;4.65;100.00;101465.25;5072542;28;20043;-78
2023/03/29 01:02:52;;;;;;;16.35;4.82;;;;;;;4.64;100.00;101461.72;5072554;28;20055;-77
2023/03/29 01:05:29;;;;;;;15.90;4.70;;;;;;;4.62;100.00;101460.78;5072517;28;20034;-78
2023/03/29 01:08:05;;;;;;;16.98;4.70;;;;;;;4.58;100.00;101464.13;5072486;28;20021;-76
2023/03/29 01:10:40;;;;;;;15.23;4.63;;;;;;;4.64;100.00;101463.47;5072621;28;20155;-78
2023/03/29 01:13:10;;;;;;;15.63;4.60;;;;;;;4.60;100.00;101461.56;5069068;28;20093;-80
2023/03/29 01:15:40;;;;;;;15.55;4.60;;;;;;;4.58;100.00;101455.38;5068967;28;20025;-76
2023/03/29 01:18:06;;;;;;;16.80;4.90;;;;;;;4.64;100.00;101459.09;5068658;28;20147;-76
2023/03/29 01:21:03;;;;;;;15.95;4.80;;;;;;;4.69;100.00;101459.31;5071258;28;20028;-76
2023/03/29 01:24:06;;;;;;;17.75;4.82;;;;;;;4.78;100.00;101451.78;5074666;28;20475;-78
2023/03/29 01:27:21;;;;;;;16.88;4.97;;;;;;;4.79;100.00;101443.09;5078800;28;20469;-78
2023/03/29 01:29:46;;;;;;;17.38;4.93;;;;;;;4.77;100.00;101436.91;5072382;28;20486;-76
2023/03/29 01:32:24;;;;;;;17.27;4.95;;;;;;;4.75;100.00;101435.97;5078972;28;20090;-76
2023/03/29 01:35:37;;;;;;;17.67;5.00;;;;;;;4.72;100.00;101431.50;5077624;28;20356;-77
2023/03/29 01:38:14;;;;;;;18.13;5.10;;;;;;;4.71;100.00;101420.97;5037038;28;20033;-77
2023/03/29 01:40:40;;;;;;;18.02;5.25;;;;;;;4.75;100.00;101424.56;5033614;28;20107;-76
2023/03/29 01:43:31;;;;;;;17.48;5.18;;;;;;;4.73;100.00;101421.91;5059605;28;20041;-78
2023/03/29 01:46:04;;;;;;;16.88;5.00;;;;;;;4.72;100.00;101414.91;5071639;28;20490;-73
2023/03/29 01:48:32;;;;;;;18.83;5.32;;;;;;;4.67;100.00;101421.69;5078754;28;20379;-73
2023/03/29 01:51:06;;;;;;;16.98;5.18;;;;;;;4.53;100.00;101414.19;5078932;28;20480;-72
2023/03/29 01:53:53;;;;;;;17.48;4.90;;;;;;;4.39;100.00;101412.78;5079007;28;20032;-73
2023/03/29 01:56:23;;;;;;;17.73;5.50;;;;;;;4.33;100.00;101402.06;5077021;28;20119;-74
2023/03/29 01:58:57;;;;;;;17.77;5.28;;;;;;;4.32;100.00;101405.50;5078657;28;20020;-72
2023/03/29 02:01:28;;;;;;;18.30;5.45;;;;;;;4.34;100.00;101407.38;5078555;28;20029;-73
2023/03/29 02:04:02;;;;;;;16.17;5.10;;;;;;;4.39;100.00;101394.44;5078758;28;20024;-75
2023/03/29 02:06:31;;;;;;;17.83;5.32;;;;;;;4.34;100.00;101390.78;5078955;28;20053;-72
2023/03/29 02:08:57;;;;;;;15.48;5.50;;;;;;;4.32;100.00;101387.19;5078879;28;20104;-73
2023/03/29 02:11:26;;;;;;;18.70;5.55;;;;;;;4.30;100.00;101391.50;5078604;28;20031;-72
2023/03/29 02:13:52;;;;;;;18.83;5.88;;;;;;;4.27;100.00;101386.13;5078779;28;20111;-72
2023/03/29 02:16:18;;;;;;;17.67;5.13;;;;;;;4.29;100.00;101379.22;5077399;28;20031;-72
2023/03/29 02:18:46;;;;;;;17.75;5.35;;;;;;;4.33;100.00;101370.66;5078540;28;20029;-74
2023/03/29 02:21:20;;;;;;;18.40;5.45;;;;;;;4.39;100.00;101373.50;5078617;28;20024;-74
2023/03/29 02:23:47;;;;;;;19.42;5.18;;;;;;;4.45;100.00;101373.72;5078662;28;20020;-74
2023/03/29 02:26:13;;;;;;;17.52;5.07;;;;;;;4.49;100.00;101370.41;5078310;28;20442;-73
2023/03/29 02:28:39;;;;;;;17.52;5.43;;;;;;;4.54;100.00;101378.41;5078399;28;20077;-73
2023/03/29 02:31:20;;;;;;;17.33;5.35;;;;;;;4.59;100.00;101361.16;5078799;28;20081;-73
2023/03/29 02:33:57;;;;;;;15.20;4.88;;;;;;;4.65;100.00;101365.75;5071961;28;20127;-74
2023/03/29 02:36:28;;;;;;;17.25;5.30;;;;;;;4.69;100.00;101362.41;5074514;28;20025;-74
2023/03/29 02:38:55;;;;;;;17.67;5.00;;;;;;;4.72;100.00;101354.66;5075149;28;20025;-72
2023/03/29 02:41:22;;;;;;;16.13;4.90;;;;;;;4.79;100.00;101358.38;5075156;28;20487;-72
2023/03/29 02:43:49;;;;;;;15.93;4.95;;;;;;;4.86;100.00;101358.66;5075085;28;20122;-74
2023/03/29 02:46:17;;;;;;;15.27;4.70;;;;;;;4.88;100.00;101346.50;5075109;28;20028;-77
2023/03/29 02:48:44;;;;;;;19.02;5.20;;;;;;;4.93;100.00;101345.78;5075182;28;20051;-76
2023/03/29 02:51:17;;;;;;;16.30;5.03;;;;;;;4.95;100.00;101333.59;5075265;28;20024;-77
2023/03/29 02:53:57;;;;;;;15.93;4.80;;;;;;;4.97;100.00;101331.94;5073724;28;20441;-76
2023/03/29 02:56:22;;;;;;;15.80;4.60;;;;;;;4.99;100.00;101328.53;5074952;28;20060;-78
2023/03/29 02:58:48;;;;;;;14.70;4.47;;;;;;;5.04;100.00;101332.22;5073824;28;20055;-78
2023/03/29 03:01:15;;;;;;;15.65;4.50;;;;;;;5.07;100.00;101328.81;5074683;28;20032;-76
2023/03/29 03:03:40;;;;;;;17.00;4.70;;;;;;;5.08;100.00;101325.31;5074812;28;20033;-77
2023/03/29 03:06:06;;;;;;;14.93;4.32;;;;;;;5.13;100.00;101328.13;5074997;28;20031;-77
2023/03/29 03:08:31;;;;;;;16.08;4.50;;;;;;;5.18;100.00;101335.28;5074715;28;20110;-78
2023/03/29 03:10:57;;;;;;;13.93;4.32;;;;;;;5.21;100.00;101327.56;5073411;28;20446;-76
2023/03/29 03:13:22;;;;;;;14.40;4.38;;;;;;;5.24;100.00;101327.66;5074707;28;20043;-77
2023/03/29 03:15:48;;;;;;;14.93;4.20;;;;;;;5.24;100.00;101322.41;5074671;28;20530;-78
2023/03/29 03:18:13;;;;;;;13.90;4.10;;;;;;;5.26;100.00;101321.53;5074557;28;20032;-78
2023/03/29 03:20:39;;;;;;;15.00;4.45;;;;;;;5.30;100.00;101318.19;5074707;28;20036;-76
2023/03/29 03:23:07;;;;;;;17.05;4.38;;;;;;;5.30;100.00;101316.50;5074398;28;20395;-73
2023/03/29 03:25:34;;;;;;;15.13;4.60;;;;;;;5.33;100.00;101318.28;5074059;28;20536;-73
2023/03/29 03:28:00;;;;;;;15.85;4.40;;;;;;;5.34;100.00;101314.84;5074548;28;20074;-75
2023/03/29 03:30:26;;;;;;;15.45;4.45;;;;;;;5.38;100.00;101314.09;5074240;28;20029;-74
2023/03/29 03:32:53;;;;;;;15.23;4.60;;;;;;;5.40;100.00;101312.41;5074190;28;20044;-72
2023/03/29 03:35:19;;;;;;;14.98;4.20;;;;;;;5.40;100.00;101302.84;5074352;28;20066;-73
2023/03/29 03:37:44;;;;;;;15.82;4.50;;;;;;;5.41;100.00;101308.97;5074093;28;20021;-73
2023/03/29 03:40:10;;;;;;;15.48;4.28;;;;;;;5.45;100.00;101313.47;5074001;28;20091;-74
2023/03/29 03:42:38;;;;;;;15.13;4.35;;;;;;;5.44;100.00;101314.31;5074272;28;20471;-72
2023/03/29 03:45:04;;;;;;;14.82;4.28;;;;;;;5.47;100.00;101309.16;5074042;28;20056;-75
2023/03/29 03:47:29;;;;;;;16.10;4.18;;;;;;;5.44;100.00;101311.69;5072773;28;20036;-72
2023/03/29 03:49:55;;;;;;;16.55;4.50;;;;;;;5.44;100.00;101314.31;5056236;28;20029;-74
2023/03/29 03:52:20;;;;;;;13.57;4.30;;;;;;;5.47;100.00;101314.41;5074111;28;20035;-73
2023/03/29 03:54:47;;;;;;;15.52;4.28;;;;;;;5.49;100.00;101311.81;5073692;28;20028;-74
2023/03/29 03:57:12;;;;;;;14.75;4.40;;;;;;;5.51;100.00;101311.03;5073884;28;20029;-74
2023/03/29 03:59:38;;;;;;;16.70;4.40;;;;;;;5.51;100.00;101310.16;5073634;28;20033;-73
2023/03/29 04:02:04;;;;;;;16.45;4.38;;;;;;;5.50;100.00;101309.25;5073718;28;20123;-72
2023/03/29 04:04:30;;;;;;;15.57;4.38;;;;;;;5.52;100.00;101309.28;5072558;28;20021;-72
2023/03/29 04:07:01;;;;;;;17.50;4.38;;;;;;;5.51;100.00;101304.91;5073545;28;20028;-76
2023/03/29 04:09:30;;;;;;;16.65;4.20;;;;;;;5.49;100.00;101304.88;5073408;28;20082;-72
2023/03/29 04:11:57;;;;;;;17.45;4.72;;;;;;;5.48;100.00;101297.84;5073654;28;20040;-75
2023/03/29 04:14:22;;;;;;;17.60;4.57;;;;;;;5.50;100.00;101298.75;5073417;28;20055;-75
2023/03/29 04:16:48;;;;;;;15.77;4.65;;;;;;;5.51;100.00;101295.31;5073425;28;20369;-73
2023/03/29 04:19:13;;;;;;;15.65;4.70;;;;;;;5.52;100.00;101297.09;5073547;28;20028;-72
2023/03/29 04:21:39;;;;;;;16.00;4.60;;;;;;;5.52;100.00;101299.72;5073201;28;20032;-72
2023/03/29 04:24:04;;;;;;;14.80;4.53;;;;;;;5.55;100.00;101296.31;5073278;28;20578;-72
2023/03/29 04:26:30;;;;;;;17.92;5.03;;;;;;;5.53;100.00;101298.88;5073201;28;20054;-77
2023/03/29 04:28:55;;;;;;;15.18;4.60;;;;;;;5.54;100.00;101294.53;5073261;28;20029;-76
2023/03/29 04:31:21;;;;;;;16.55;4.72;;;;;;;5.55;100.00;101288.44;5073281;28;20032;-78
2023/03/29 04:33:46;;;;;;;14.82;4.30;;;;;;;5.56;100.00;101285.88;5073039;28;20028;-77
2023/03/29 04:36:12;;;;;;;15.95;4.50;;;;;;;5.59;100.00;101296.44;5073043;28;20055;-72
2023/03/29 04:38:40;;;;;;;16.50;4.97;;;;;;;5.59;100.00;101293.84;5073280;28;20480;-77
2023/03/29 04:41:08;;;;;;;16.65;4.90;;;;;;;5.59;100.00;101279.81;5069199;28;20044;-73
2023/03/29 04:43:34;;;;;;;19.50;5.00;;;;;;;5.62;100.00;101286.88;5072891;28;20037;-75
2023/03/29 04:45:59;;;;;;;16.73;4.90;;;;;;;5.61;100.00;101283.38;5073030;28;20028;-75
2023/03/29 04:48:25;;;;;;;17.15;5.10;;;;;;;5.69;100.00;101286.25;5073124;28;20107;-73
2023/03/29 04:50:53;;;;;;;16.48;4.72;;;;;;;5.71;100.00;101284.56;5072857;28;20033;-75
2023/03/29 04:53:19;;;;;;;16.05;4.72;;;;;;;5.72;100.00;101287.25;5073099;28;20029;-75
2023/03/29 04:55:45;;;;;;;18.70;5.20;;;;;;;5.76;100.00;101288.22;5072782;28;20052;-76
2023/03/29 04:58:11;;;;;;;15.52;4.75;;;;;;;5.77;100.00;101282.13;5072409;28;20029;-76
2023/03/29 05:00:36;;;;;;;17.20;4.60;;;;;;;5.77;100.00;101269.00;5072965;28;20040;-74
2023/03/29 05:03:03;;;;;;;16.88;4.88;;;;;;;5.81;100.00;101270.91;5072532;28;20021;-74
2023/03/29 05:05:29;;;;;;;16.52;4.53;;;;;;;5.90;100.00;101270.28;5054799;28;20035;-73
2023/03/29 05:07:54;;;;;;;17.58;5.05;;;;;;;5.92;100.00;101271.22;5072986;28;20028;-75
2023/03/29 05:10:20;;;;;;;17.35;5.13;;;;;;;5.96;100.00;101272.22;5072530;28;20111;-73
2023/03/29 05:12:45;;;;;;;14.40;4.68;;;;;;;5.97;100.00;101263.47;5072560;28;20104;-74
2023/03/29 05:15:12;;;;;;;16.73;4.90;;;;;;;6.00;100.00;101263.59;5072671;28;20028;-73
2023/03/29 05:17:38;;;;;;;17.67;4.85;;;;;;;6.03;100.00;101266.28;5072588;28;20060;-73
2023/03/29 05:20:09;;;;;;;16.20;5.00;;;;;;;6.05;100.00;101256.75;5072477;28;20518;-71
2023/03/29 05:22:35;;;;;;;16.00;4.78;;;;;;;6.06;100.00;101267.28;5072447;28;20040;-73
2023/03/29 05:25:00;;;;;;;16.25;5.03;;;;;;;6.11;100.00;101267.44;5072366;28;20035;-76
2023/03/29 05:27:26;;;;;;;18.13;4.90;;;;;;;6.15;100.00;101266.69;5072343;28;20044;-74
2023/03/29 05:29:52;;;;;;;17.75;5.03;;;;;;;6.15;100.00;101258.81;5072590;28;20055;-72
2023/03/29 05:32:17;;;;;;;16.88;5.10;;;;;;;6.20;100.00;101262.44;5072386;28;20040;-74
2023/03/29 05:34:42;;;;;;;17.38;4.80;;;;;;;6.22;100.00;101270.38;5072292;28;20448;-75
2023/03/29 05:37:08;;;;;;;17.30;5.10;;;;;;;6.25;100.00;101276.59;5072827;28;20041;-74
2023/03/29 05:39:33;;;;;;;18.15;5.00;;;;;;;6.28;100.00;101281.94;5072145;28;20021;-76
2023/03/29 05:41:59;;;;;;;17.05;5.00;;;;;;;6.32;100.00;101288.19;5072249;28;20036;-76
2023/03/29 05:44:25;;;;;;;16.67;4.90;;;;;;;6.28;100.00;101284.56;5067365;28;20151;-80
2023/03/29 05:46:51;;;;;;;16.52;4.75;;;;;;;6.27;100.00;101281.88;5068266;28;20028;-78
2023/03/29 05:49:16;;;;;;;18.48;5.20;;;;;;;6.34;100.00;101280.34;5073966;28;20029;-76
2023/03/29 05:51:44;;;;;;;18.67;5.35;;;;;;;6.33;100.00;101279.44;5072323;28;20032;-75
2023/03/29 05:54:10;;;;;;;18.55;5.10;;;;;;;6.36;100.00;101286.50;5071594;28;20025;-76
2023/03/29 05:56:35;;;;;;;18.92;5.20;;;;;;;6.39;100.00;101283.97;5062133;28;20105;-81
2023/03/29 05:59:01;;;;;;;17.42;5.20;;;;;;;6.41;100.00;101290.19;5065897;28;20031;-79
2023/03/29 06:01:27;;;;;;;18.98;5.00;;;;;;;6.41;100.00;101284.94;5069126;28;20032;-81
2023/03/29 06:03:52;;;;;;;18.02;5.40;;;;;;;6.47;100.00;101290.34;5067746;28;20114;-77
2023/03/29 06:06:20;;;;;;;16.83;5.07;;;;;;;6.50;100.00;101274.66;5067107;28;20032;-78
2023/03/29 06:08:46;;;;;;;17.77;5.10;;;;;;;6.54;100.00;101284.41;5070838;28;20029;-80
2023/03/29 06:11:12;;;;;;;16.27;5.30;;;;;;;6.56;100.00;101282.72;5073366;28;20154;-79
2023/03/29 06:13:38;;;;;;;17.73;5.00;;;;;;;6.59;100.00;101282.78;5072572;28;20028;-74
2023/03/29 06:16:05;;;;;;;17.27;5.40;;;;;;;6.65;100.00;101284.69;5074380;28;20021;-81
2023/03/29 06:18:34;;;;;;;18.40;5.50;;;;;;;6.69;100.00;101289.19;5071694;28;20052;-79
2023/03/29 06:21:01;;;;;;;18.48;5.25;;;;;;;6.74;100.00;101286.69;5076078;28;20535;-79
2023/03/29 06:23:27;;;;;;;17.48;5.18;;;;;;;6.75;100.00;101289.34;5072041;28;20467;-78
2023/03/29 06:25:54;;;;;;;18.38;5.38;;;;;;;6.79;100.00;101285.09;5067527;28;20045;-78
2023/03/29 06:28:20;;;;;;;17.35;5.28;;;;;;;6.83;100.00;101297.47;5071407;28;20020;-76
2023/03/29 06:30:46;;;;;;;17.27;5.20;;;;;;;6.86;100.00;101286.13;5064580;28;20077;-79
2023/03/29 06:33:13;;;;;;;18.95;5.60;;;;;;;6.89;100.00;101294.13;5069440;28;20029;-78
2023/03/29 06:35:44;;;;;;;17.80;5.30;;;;;;;6.89;100.00;101295.00;5070338;28;20132;-79
2023/03/29 06:38:10;;;;;;;18.03;5.33;;;;;;;6.91;100.00;101290.66;5067745;28;20021;-78
2023/03/29 06:40:38;;;;;;;18.58;5.25;;;;;;;6.99;100.00;101285.63;5075662;28;20541;-80
2023/03/29 06:43:04;;;;;;;18.17;5.25;;;;;;;7.05;100.00;101283.16;5076606;28;20028;-79
2023/03/29 06:45:35;;;;;;;18.33;5.63;;;;;;;7.12;100.00;101287.72;5070149;28;20039;-77
2023/03/29 06:48:02;;;;;;;19.80;5.70;;;;;;;7.18;100.00;101288.69;5069641;28;20042;-73
2023/03/29 06:50:27;;;;;;;18.80;5.47;;;;;;;7.19;100.00;101278.22;5064115;28;20086;-76
2023/03/29 06:52:53;;;;;;;17.40;5.53;;;;;;;7.29;100.00;101282.84;5063108;28;20112;-76
2023/03/29 06:55:19;;;;;;;17.58;5.60;;;;;;;7.39;100.00;101285.72;5059368;28;20090;-74
2023/03/29 06:57:44;;;;;;;19.60;5.78;;;;;;;7.46;100.00;101285.03;5070293;28;20400;-76
2023/03/29 07:00:14;;;;;;;19.27;5.60;;;;;;;7.53;100.00;101286.97;5074746;28;20024;-77
2023/03/29 07:02:40;;;;;;;18.50;5.25;;;;;;;7.56;100.00;101289.66;5065915;28;20032;-72
2023/03/29 07:05:10;;;;;;;18.60;5.72;;;;;;;7.60;100.00;101299.41;5070992;28;20620;-74
2023/03/29 07:07:52;;;;;;;17.67;5.85;;;;;;;7.61;100.00;101298.53;5069641;28;20032;-73
2023/03/29 07:10:18;;;;;;;19.05;5.50;;;;;;;7.60;100.00;101314.28;5074044;28;20032;-73
2023/03/29 07:12:45;;;;;;;18.40;5.70;;;;;;;7.60;100.00;101304.66;5069926;28;20031;-72
2023/03/29 07:15:10;;;;;;;19.10;6.10;;;;;;;7.60;100.00;101302.03;5075112;28;20028;-75
2023/03/29 07:17:35;;;;;;;18.90;5.63;;;;;;;7.63;100.00;101296.84;5071427;28;20028;-74
2023/03/29 07:20:01;;;;;;;18.42;5.78;;;;;;;7.68;100.00;101304.84;5073831;28;20040;-72
2023/03/29 07:22:26;;;;;;;19.50;5.82;;;;;;;7.75;100.00;101298.00;5069262;28;20064;-72
2023/03/29 07:24:52;;;;;;;19.23;5.88;;;;;;;7.78;100.00;101296.31;5072428;28;20047;-71
2023/03/29 07:27:17;;;;;;;18.70;5.80;;;;;;;7.85;100.00;101311.38;5069571;28;20080;-72
2023/03/29 07:29:42;;;;;;;18.63;5.63;;;;;;;7.87;100.00;101311.41;5073923;28;20059;-74
2023/03/29 07:32:08;;;;;;;18.00;5.38;;;;;;;7.83;100.00;101307.84;5069350;28;20033;-70
2023/03/29 07:34:33;;;;;;;20.60;6.05;;;;;;;7.85;100.00;101313.13;5074724;28;20024;-72
2023/03/29 07:36:59;;;;;;;20.42;6.00;;;;;;;7.90;100.00;101315.88;5071340;28;20387;-75
2023/03/29 07:39:25;;;;;;;19.50;5.97;;;;;;;7.91;100.00;101321.16;5066693;28;20078;-75
2023/03/29 07:41:50;;;;;;;20.92;6.20;;;;;;;7.94;100.00;101331.78;5072821;28;20056;-71
2023/03/29 07:44:17;;;;;;;20.33;5.75;;;;;;;7.92;100.00;101338.75;5074062;28;20031;-71
2023/03/29 07:46:43;;;;;;;19.33;5.97;;;;;;;7.94;100.00;101329.13;5073872;28;20029;-72
2023/03/29 07:49:08;;;;;;;19.58;6.03;;;;;;;7.92;100.00;101340.47;5074091;28;20032;-74
2023/03/29 07:51:35;;;;;;;18.95;5.90;;;;;;;7.77;100.00;101335.75;5073903;28;20395;-75
2023/03/29 07:54:01;;;;;;;19.77;6.22;;;;;;;7.70;100.00;101334.69;5073618;28;20044;-73
2023/03/29 07:56:26;;;;;;;18.77;6.22;;;;;;;7.47;100.00;101336.78;5074244;28;20034;-73
2023/03/29 07:58:51;;;;;;;20.65;6.57;;;;;;;7.32;100.00;101330.31;5072317;28;20123;-72
2023/03/29 08:01:18;;;;;;;19.45;6.35;;;;;;;7.32;100.00;101330.31;5073722;28;20105;-72
2023/03/29 08:03:43;;;;;;;20.40;6.63;;;;;;;7.35;100.00;101325.97;5073558;28;20033;-71
2023/03/29 08:06:09;;;;;;;19.00;6.25;;;;;;;7.44;100.00;101334.06;5073453;28;20024;-71
2023/03/29 08:08:35;;;;;;;20.10;6.80;;;;;;;7.39;100.00;101325.19;5073708;28;20039;-73
2023/03/29 08:11:00;;;;;;;19.75;6.82;;;;;;;7.30;100.00;101331.09;5073348;28;20472;-73
2023/03/29 08:13:26;;;;;;;20.00;7.10;;;;;;;7.24;100.00;101331.84;5073421;28;20029;-72
2023/03/29 08:15:51;;;;;;;20.70;7.43;;;;;;;7.27;100.00;101331.03;5073390;28;20033;-73
2023/03/29 08:18:17;;;;;;;20.73;7.30;;;;;;;7.37;100.00;101329.50;5073245;28;20035;-72
2023/03/29 08:20:42;;;;;;;21.55;7.40;;;;;;;7.46;100.00;101332.38;5073222;28;20157;-71
2023/03/29 08:23:08;;;;;;;20.38;7.10;;;;;;;7.64;100.00;101334.56;5073640;28;20044;-72
2023/03/29 08:25:34;;;;;;;20.17;6.72;;;;;;;7.78;100.00;101329.66;5072974;28;20028;-72
2023/03/29 08:28:00;;;;;;;20.23;7.05;;;;;;;7.90;100.00;101311.47;5073020;28;20048;-72
2023/03/29 08:30:25;;;;;;;20.70;7.05;;;;;;;8.06;100.00;101310.09;5067990;28;20499;-75
2023/03/29 08:32:52;;;;;;;20.65;7.32;;;;;;;8.23;100.00;101312.19;5073447;28;20036;-72
2023/03/29 08:35:18;;;;;;;20.52;7.35;;;;;;;8.32;100.00;101313.28;5070829;28;20024;-78
2023/03/29 08:37:43;;;;;;;22.20;7.88;;;;;;;8.36;100.00;101314.25;5067304;28;20028;-76
2023/03/29 08:40:18;;;;;;;20.20;7.20;;;;;;;8.43;100.00;101310.88;5068218;28;20032;-80
2023/03/29 08:43:15;;;;;;;21.95;7.05;;;;;;;8.53;100.00;101317.25;5065938;28;20032;-80
2023/03/29 08:45:48;;;;;;;20.90;7.38;;;;;;;8.64;100.00;101312.22;5059258;28;20121;-79
2023/03/29 08:48:27;;;;;;;21.48;7.40;;;;;;;8.70;100.00;101315.84;5063405;28;20021;-80
2023/03/29 08:51:00;;;;;;;20.55;6.80;;;;;;;8.75;100.00;101312.41;5068395;28;20051;-79
2023/03/29 08:53:34;;;;;;;20.23;7.10;;;;;;;8.87;100.00;101308.25;5066169;28;20125;-77
2023/03/29 08:56:07;;;;;;;20.70;7.38;;;;;;;8.99;100.00;101312.00;5069340;28;20052;-80
2023/03/29 08:58:36;;;;;;;20.17;6.93;;;;;;;8.98;100.00;101311.06;5066274;28;20467;-85
2023/03/29 09:01:07;;;;;;;21.05;7.18;;;;;;;9.02;100.00;101312.91;5069136;28;20033;-79
2023/03/29 09:03:55;;;;;;;21.60;7.22;;;;;;;9.09;100.00;101308.66;5073529;28;20476;-79
2023/03/29 09:06:21;;;;;;;20.60;7.05;;;;;;;9.17;100.00;101306.16;5042619;28;20093;-79
2023/03/29 09:08:50;;;;;;;20.15;7.20;;;;;;;9.22;100.00;101312.41;5068030;28;20099;-76
2023/03/29 09:11:18;;;;;;;20.50;7.38;;;;;;;9.19;100.00;101312.34;5063575;28;20032;-75
2023/03/29 09:13:51;;;;;;;20.77;7.07;;;;;;;9.05;100.00;101305.06;5069439;28;20025;-79
2023/03/29 09:16:20;;;;;;;20.63;7.60;;;;;;;8.93;100.00;101301.31;5067637;28;20115;-78
2023/03/29 09:19:12;;;;;;;20.60;7.70;;;;;;;8.81;100.00;101310.78;5070256;28;20085;-78
2023/03/29 09:22:03;;;;;;;20.02;7.40;;;;;;;8.40;100.00;101320.47;5066903;28;20040;-79
2023/03/29 09:24:42;;;;;;;22.80;8.50;;;;;;;8.25;100.00;101316.63;5053933;28;20076;-78
2023/03/29 09:27:30;;;;;;;21.73;8.90;;;;;;;8.02;100.00;101309.16;5060069;28;20120;-76
2023/03/29 09:30:01;;;;;;;20.85;8.93;;;;;;;7.96;100.00;101313.38;5067858;28;20425;-78
2023/03/29 09:32:36;;;;;;;23.83;10.25;;;;;;;7.93;100.00;101314.19;5063441;28;20024;-78
2023/03/29 09:35:24;;;;;;;22.63;9.85;;;;;;;7.94;100.00;101323.88;5062278;28;20025;-78
2023/03/29 09:37:52;;;;;;;22.90;9.25;;;;;;;8.08;100.00;101318.00;5066592;28;20039;-80
2023/03/29 09:40:28;;;;;;;24.27;9.95;;;;;;;8.16;100.00;101321.72;5069186;28;20083;-77
2023/03/29 09:42:56;;;;;;;24.00;10.02;;;;;;;8.19;100.00;101312.13;5063097;28;20424;-78
2023/03/29 09:45:22;;;;;;;23.98;10.27;;;;;;;8.28;100.00;101313.19;5070301;28;20021;-76
2023/03/29 09:47:54;;;;;;;22.80;10.10;;;;;;;8.30;100.00;101301.84;5075980;28;20032;-77
2023/03/29 09:50:19;;;;;;;22.92;10.18;;;;;;;8.32;100.00;101292.22;5071344;28;20036;-76
2023/03/29 09:52:45;;;;;;;23.58;10.40;;;;;;;8.46;100.00;101312.72;5075432;28;20399;-76
2023/03/29 09:55:15;;;;;;;24.55;10.70;;;;;;;8.50;100.00;101317.19;5066958;28;20489;-76
2023/03/29 09:57:42;;;;;;;21.98;9.77;;;;;;;8.49;100.00;101312.75;5068324;28;20037;-76
2023/03/29 10:00:09;;;;;;;22.63;9.73;;;;;;;8.43;100.00;101316.16;5072659;28;20028;-71
2023/03/29 10:02:35;;;;;;;23.33;10.35;;;;;;;8.45;100.00;101316.22;5076565;28;20028;-71
2023/03/29 10:05:04;;;;;;;22.30;9.77;;;;;;;8.50;100.00;101327.72;5067182;28;20025;-72
2023/03/29 10:07:43;;;;;;;23.98;9.98;;;;;;;8.64;100.00;101326.25;5071630;28;20016;-73
2023/03/29 10:10:18;;;;;;;23.52;10.27;;;;;;;8.83;100.00;101306.41;5069815;28;20033;-71
2023/03/29 10:12:50;;;;;;;21.65;10.38;;;;;;;9.13;100.00;101314.84;5071285;28;20077;-75
2023/03/29 10:15:17;;;;;;;23.25;10.20;;;;;;;9.11;100.00;101329.78;5068524;28;20029;-72
2023/03/29 10:17:44;;;;;;;21.55;9.45;;;;;;;9.00;100.00;101314.66;5075852;28;20107;-73
2023/03/29 10:20:15;;;;;;;22.05;10.10;;;;;;;9.04;100.00;101313.84;5075780;28;20032;-72
2023/03/29 10:22:47;;;;;;;21.60;9.30;;;;;;;8.96;100.00;101312.81;5075435;28;20149;-72
2023/03/29 10:25:14;;;;;;;21.60;9.30;;;;;;;8.94;100.00;101306.63;5075769;28;20028;-72
2023/03/29 10:27:42;;;;;;;21.95;9.20;;;;;;;8.96;100.00;101304.03;5075482;28;20041;-72
2023/03/29 10:30:13;;;;;;;22.83;9.68;;;;;;;9.01;100.00;101299.69;5075403;28;20024;-74
2023/03/29 10:32:39;;;;;;;22.48;10.00;;;;;;;9.47;100.00;101289.06;5075294;28;20505;-72
2023/03/29 10:35:22;;;;;;;23.08;9.05;;;;;;;10.10;100.00;101288.22;5074371;28;20376;-73
2023/03/29 10:37:52;;;;;;;21.40;8.30;;;;;;;10.35;100.00;101283.28;5075708;28;20032;-72
2023/03/29 10:40:32;;;;;;;21.25;8.40;;;;;;;10.63;100.00;101273.91;5075157;28;20020;-73
2023/03/29 10:43:11;;;;;;;20.75;7.65;;;;;;;11.25;100.00;101284.22;5075138;28;20032;-72
2023/03/29 10:45:38;;;;;;;20.17;7.53;;;;;;;11.34;100.00;101281.63;5072065;28;20060;-72
2023/03/29 10:48:05;;;;;;;19.83;7.47;;;;;;;11.60;100.00;101280.94;5074162;28;20112;-73
2023/03/29 10:50:34;;;;;;;19.92;7.15;;;;;;;11.77;100.00;101266.06;5071232;28;20478;-74
2023/03/29 10:53:01;;;;;;;20.42;7.30;;;;;;;12.19;100.00;101256.59;5075356;28;20174;-74
2023/03/29 10:55:46;;;;;;;20.33;7.10;;;;;;;12.25;100.00;101263.69;5074630;28;20032;-74
2023/03/29 10:58:14;;;;;;;19.02;6.68;;;;;;;12.86;100.00;101247.06;5068477;28;20028;-73
2023/03/29 11:00:51;;;;;;;20.35;6.68;;;;;;;14.47;100.00;101244.09;5075077;28;20078;-74
2023/03/29 11:03:16;;;;;;;20.45;7.10;;;;;;;14.29;100.00;101229.13;5074967;28;20371;-73
2023/03/29 11:05:52;;;;;;;19.13;6.80;;;;;;;13.57;100.00;101236.47;5074796;28;20031;-74
2023/03/29 11:08:42;;;;;;;18.73;6.40;;;;;;;13.91;100.00;101233.72;5074916;28;20032;-73
2023/03/29 11:11:28;;;;;;;18.40;6.90;;;;;;;14.25;100.00;101225.59;5060517;28;20036;-76
2023/03/29 11:14:20;;;;;;;19.25;6.40;;;;;;;14.58;100.00;101247.59;5072182;28;20029;-73
2023/03/29 11:16:54;;;;;;;18.85;6.45;;;;;;;14.52;100.00;101223.69;5069015;28;20082;-74
2023/03/29 11:19:57;;;;;;;18.25;6.43;;;;;;;14.59;100.00;101235.16;5069742;28;20036;-73
2023/03/29 11:22:40;;;;;;;;;;;;;;;15.13;100.00;101229.47;5067606;28;20083;-78
2023/03/29 11:25:17;;;;;;;18.35;6.20;;;;;;;16.03;100.00;101222.38;5069704;28;20267;-76
2023/03/29 11:28:21;;;;;;;18.48;5.95;;;;;;;16.54;100.00;101226.16;5070047;28;20098;-74